Time;durP1;ratioP1;P1;durP2;ratioP2;P2;SDS_P1;SDS_P2;PMS_P1;PMS_P2;Temp;Humidity;BMP_temperature;BMP_pressure;BME280_temperature;BME280_humidity;BME280_pressure;Samples;Min_cycle;Max_cycle;Signal;HPM_P1;HPM_P2
2023/01/02 00:01:09;;;;;;;34.78;15.77;;;;;;;8.70;71.18;99198.75;4966135;28;20072;-69
2023/01/02 00:03:35;;;;;;;33.10;15.32;;;;;;;8.69;70.29;99189.69;4970966;28;20023;-69
2023/01/02 00:06:04;;;;;;;41.13;19.02;;;;;;;8.68;70.72;99187.25;4969044;28;20102;-69
2023/01/02 00:08:30;;;;;;;31.17;14.70;;;;;;;8.67;71.19;99188.34;4978330;28;20023;-68
2023/01/02 00:10:55;;;;;;;33.30;15.05;;;;;;;8.64;71.00;99182.31;4968642;28;20023;-68
2023/01/02 00:13:20;;;;;;;28.77;14.45;;;;;;;8.63;70.45;99174.34;4970226;28;20479;-67
2023/01/02 00:15:46;;;;;;;26.42;13.05;;;;;;;8.60;71.17;99170.25;4970063;28;20030;-68
2023/01/02 00:18:11;;;;;;;27.17;13.13;;;;;;;8.57;70.95;99172.69;4970529;28;20061;-68
2023/01/02 00:20:37;;;;;;;25.80;12.30;;;;;;;8.57;71.21;99169.94;4980819;28;20032;-69
2023/01/02 00:23:02;;;;;;;22.52;12.40;;;;;;;8.55;70.73;99166.69;4970073;28;20034;-68
2023/01/02 00:25:28;;;;;;;27.33;13.98;;;;;;;8.53;70.61;99157.91;4977977;28;20057;-68
2023/01/02 00:27:55;;;;;;;30.45;15.32;;;;;;;8.47;70.76;99166.06;4970434;28;20026;-67
2023/01/02 00:30:20;;;;;;;25.65;13.15;;;;;;;8.44;71.17;99165.75;4970103;28;20065;-68
2023/01/02 00:32:45;;;;;;;21.80;11.23;;;;;;;8.40;70.93;99157.25;5005941;28;20050;-68
2023/01/02 00:35:11;;;;;;;29.20;13.98;;;;;;;8.39;71.54;99162.97;4968683;28;20034;-68
2023/01/02 00:37:36;;;;;;;31.23;14.68;;;;;;;8.35;71.45;99168.16;4970069;28;20387;-67
2023/01/02 00:40:02;;;;;;;27.05;14.18;;;;;;;8.32;71.08;99168.69;4970347;28;20452;-68
2023/01/02 00:42:27;;;;;;;24.20;12.48;;;;;;;8.29;72.23;99167.31;4970001;28;20077;-69
2023/01/02 00:44:53;;;;;;;20.75;11.48;;;;;;;8.26;71.60;99169.75;4969562;28;20360;-68
2023/01/02 00:47:18;;;;;;;19.48;10.90;;;;;;;8.19;72.01;99159.84;4969795;28;20039;-68
2023/01/02 00:49:43;;;;;;;18.67;9.90;;;;;;;8.18;71.61;99158.22;4969633;28;20106;-68
2023/01/02 00:52:09;;;;;;;23.92;11.52;;;;;;;8.15;72.02;99160.66;4969998;28;20059;-68
2023/01/02 00:54:34;;;;;;;21.55;11.27;;;;;;;8.12;72.44;99156.56;4969835;28;20502;-68
2023/01/02 00:57:00;;;;;;;27.25;12.70;;;;;;;8.12;72.42;99159.28;4969855;28;20042;-68
2023/01/02 00:59:25;;;;;;;20.33;11.07;;;;;;;8.10;72.58;99155.16;4969151;28;20055;-68
2023/01/02 01:01:50;;;;;;;22.98;10.75;;;;;;;8.07;73.00;99153.78;4984121;28;20074;-68
2023/01/02 01:04:17;;;;;;;20.33;11.23;;;;;;;8.06;73.17;99152.13;4985952;28;20107;-68
2023/01/02 01:06:43;;;;;;;18.13;10.68;;;;;;;8.04;72.55;99157.03;4969072;28;20063;-67
2023/01/02 01:09:08;;;;;;;18.70;10.70;;;;;;;8.05;73.09;99161.41;4968272;28;20102;-68
2023/01/02 01:11:33;;;;;;;20.65;10.77;;;;;;;8.08;73.47;99151.84;4968898;28;20055;-68
2023/01/02 01:13:59;;;;;;;18.02;10.40;;;;;;;8.09;73.47;99150.78;4969369;28;20513;-68
2023/01/02 01:16:25;;;;;;;17.77;9.60;;;;;;;8.09;73.53;99142.56;4968925;28;20070;-68
2023/01/02 01:18:55;;;;;;;16.63;9.02;;;;;;;8.09;73.25;99134.38;4969478;28;20023;-66
2023/01/02 01:21:20;;;;;;;15.95;9.18;;;;;;;8.09;73.36;99140.69;4967415;28;20023;-66
2023/01/02 01:23:54;;;;;;;16.27;9.80;;;;;;;8.09;73.52;99148.88;4966180;28;20035;-67
2023/01/02 01:26:21;;;;;;;17.60;9.63;;;;;;;8.10;72.91;99150.53;4967275;28;20475;-67
2023/01/02 01:28:47;;;;;;;17.70;9.70;;;;;;;8.10;73.21;99153.25;4969427;28;20031;-67
2023/01/02 01:31:14;;;;;;;19.60;10.07;;;;;;;8.11;73.21;99149.44;4969533;28;20092;-67
2023/01/02 01:33:41;;;;;;;15.13;8.93;;;;;;;8.12;73.21;99139.31;4970173;28;20073;-67
2023/01/02 01:36:08;;;;;;;16.65;8.77;;;;;;;8.13;73.94;99136.34;4970454;28;20039;-69
2023/01/02 01:38:33;;;;;;;17.80;9.70;;;;;;;8.11;72.69;99143.13;4967635;28;20062;-69
2023/01/02 01:41:00;;;;;;;15.52;8.32;;;;;;;8.12;73.36;99137.44;4970573;28;20046;-69
2023/01/02 01:43:40;;;;;;;13.48;8.18;;;;;;;8.10;72.89;99139.59;4968721;28;20031;-69
2023/01/02 01:46:14;;;;;;;16.00;8.18;;;;;;;8.11;73.02;99132.22;4968269;28;20031;-69
2023/01/02 01:48:40;;;;;;;14.35;8.18;;;;;;;8.11;72.71;99126.75;4968361;28;20058;-68
2023/01/02 01:51:05;;;;;;;15.02;8.38;;;;;;;8.13;72.94;99124.56;4968116;28;20084;-69
2023/01/02 01:53:31;;;;;;;14.80;8.32;;;;;;;8.12;73.07;99123.78;4968750;28;20027;-68
2023/01/02 01:56:00;;;;;;;14.50;7.72;;;;;;;8.11;72.99;99127.59;4968453;28;20144;-68
2023/01/02 01:58:33;;;;;;;13.32;8.48;;;;;;;8.12;73.48;99120.19;4966709;28;20027;-68
2023/01/02 02:00:59;;;;;;;12.55;7.78;;;;;;;8.11;73.43;99111.19;4968499;28;20026;-68
2023/01/02 02:03:29;;;;;;;13.82;8.52;;;;;;;8.12;73.50;99106.53;4966578;28;20023;-68
2023/01/02 02:05:56;;;;;;;13.23;7.45;;;;;;;8.12;73.49;99093.72;4968824;28;20019;-68
2023/01/02 02:08:48;;;;;;;13.80;8.30;;;;;;;8.13;73.04;99092.63;5009214;28;20147;-68
2023/01/02 02:11:14;;;;;;;11.82;7.47;;;;;;;8.13;73.45;99094.53;5036103;28;20487;-68
2023/01/02 02:13:41;;;;;;;13.23;7.10;;;;;;;8.10;73.77;99073.19;4967554;28;20057;-68
2023/01/02 02:16:16;;;;;;;11.77;6.43;;;;;;;8.09;73.31;99075.13;4967628;28;20045;-68
2023/01/02 02:18:48;;;;;;;10.70;6.28;;;;;;;8.11;73.54;99078.41;4968435;28;20018;-69
2023/01/02 02:21:54;;;;;;;12.43;7.15;;;;;;;8.12;73.22;99076.47;4968317;28;20484;-69
2023/01/02 02:24:43;;;;;;;11.98;6.97;;;;;;;8.14;73.71;99083.34;4966649;28;20039;-69
2023/01/02 02:27:27;;;;;;;12.52;6.80;;;;;;;8.16;73.40;99074.88;4967963;28;20632;-69
2023/01/02 02:30:21;;;;;;;12.00;6.75;;;;;;;8.17;73.92;99073.78;4968062;28;20434;-69
2023/01/02 02:33:01;;;;;;;10.80;6.78;;;;;;;8.17;74.22;99058.19;5023902;28;20537;-68
2023/01/02 02:35:48;;;;;;;12.38;7.20;;;;;;;8.19;74.22;99066.16;4965328;28;20035;-69
2023/01/02 02:38:16;;;;;;;14.38;7.07;;;;;;;8.20;74.31;99049.47;4968368;28;20113;-69
2023/01/02 02:40:57;;;;;;;11.77;7.32;;;;;;;8.22;74.00;99045.66;4968053;28;20027;-68
2023/01/02 02:43:22;;;;;;;11.93;7.35;;;;;;;8.23;74.06;99045.41;4966902;28;20070;-68
2023/01/02 02:46:11;;;;;;;13.60;6.90;;;;;;;8.22;74.46;99054.69;4965819;28;20062;-69
2023/01/02 02:49:18;;;;;;;13.27;7.40;;;;;;;8.24;74.73;99046.22;4967155;28;20147;-69
2023/01/02 02:52:06;;;;;;;12.73;7.13;;;;;;;8.26;74.40;99058.53;4966599;28;20073;-69
2023/01/02 02:55:10;;;;;;;12.25;6.97;;;;;;;8.30;74.18;99053.34;4966805;28;20394;-68
2023/01/02 02:57:38;;;;;;;12.77;7.53;;;;;;;8.32;74.30;99060.22;4965338;28;20038;-69
2023/01/02 03:00:09;;;;;;;11.30;7.00;;;;;;;8.33;74.18;99058.28;4969300;28;20065;-68
2023/01/02 03:02:35;;;;;;;12.15;7.30;;;;;;;8.35;74.07;99067.03;4966963;28;20152;-68
2023/01/02 03:05:06;;;;;;;11.63;7.63;;;;;;;8.36;74.10;99074.16;4968396;28;20663;-68
2023/01/02 03:07:55;;;;;;;13.48;8.25;;;;;;;8.39;73.72;99070.03;4968287;28;20035;-68
2023/01/02 03:10:21;;;;;;;14.75;8.75;;;;;;;8.39;73.88;99073.63;5030882;28;20087;-68
2023/01/02 03:12:55;;;;;;;16.80;9.55;;;;;;;8.39;73.83;99078.25;4964220;28;20019;-68
2023/01/02 03:15:33;;;;;;;16.10;10.02;;;;;;;8.39;73.61;99072.78;5042997;28;20154;-69
2023/01/02 03:18:27;;;;;;;20.05;10.90;;;;;;;8.38;73.63;99073.88;4973824;28;20027;-69
2023/01/02 03:21:22;;;;;;;16.17;10.23;;;;;;;8.36;72.91;99074.16;4968685;28;20058;-69
2023/01/02 03:23:48;;;;;;;19.85;11.40;;;;;;;8.33;73.16;99070.06;4997342;28;20082;-69
2023/01/02 03:26:17;;;;;;;17.42;9.25;;;;;;;8.32;72.84;99064.84;4980400;28;20023;-69
2023/01/02 03:28:47;;;;;;;15.48;9.50;;;;;;;8.28;73.42;99059.09;4993333;28;20056;-70
2023/01/02 03:31:17;;;;;;;16.05;11.07;;;;;;;8.25;73.20;99067.81;5069835;28;20082;-69
2023/01/02 03:33:49;;;;;;;18.40;10.63;;;;;;;8.21;73.55;99061.25;5068844;28;20024;-70
2023/01/02 03:36:21;;;;;;;13.70;8.95;;;;;;;8.14;73.20;99061.50;5069709;28;20096;-69
2023/01/02 03:38:54;;;;;;;16.73;9.23;;;;;;;8.14;73.15;99052.44;4980242;28;20114;-69
2023/01/02 03:41:24;;;;;;;12.35;8.02;;;;;;;8.12;73.42;99060.94;4971572;28;20058;-69
2023/01/02 03:43:53;;;;;;;15.57;8.35;;;;;;;8.13;73.76;99061.75;5020763;28;20021;-69
2023/01/02 03:46:30;;;;;;;15.70;9.13;;;;;;;8.11;73.82;99061.19;4980382;28;20047;-69
2023/01/02 03:49:10;;;;;;;15.38;9.05;;;;;;;8.09;74.07;99069.66;4970803;28;20031;-69
2023/01/02 03:51:36;;;;;;;15.40;9.00;;;;;;;8.10;73.89;99065.00;4971509;28;20046;-69
2023/01/02 03:54:04;;;;;;;16.52;9.30;;;;;;;8.09;74.19;99058.72;4985496;28;20043;-69
2023/01/02 03:56:41;;;;;;;16.85;10.18;;;;;;;8.08;74.18;99064.44;5072952;28;20074;-69
2023/01/02 03:59:14;;;;;;;18.27;9.77;;;;;;;8.08;74.50;99059.81;5073433;28;20473;-69
2023/01/02 04:01:48;;;;;;;19.15;10.65;;;;;;;8.08;74.31;99062.53;5069143;28;20059;-68
2023/01/02 04:04:17;;;;;;;18.10;10.57;;;;;;;8.08;73.79;99058.97;4971992;28;20049;-69
2023/01/02 04:06:54;;;;;;;20.10;11.80;;;;;;;8.06;74.27;99056.53;4970171;28;20034;-68
2023/01/02 04:09:24;;;;;;;18.05;9.98;;;;;;;8.06;74.30;99051.06;4971748;28;20026;-69
2023/01/02 04:11:55;;;;;;;15.65;9.98;;;;;;;8.05;74.26;99054.88;4971225;28;20027;-69
2023/01/02 04:14:28;;;;;;;17.20;10.10;;;;;;;8.04;74.22;99055.97;4971195;28;20027;-69
2023/01/02 04:16:57;;;;;;;18.30;10.63;;;;;;;8.03;74.38;99063.31;4970886;28;20384;-69
2023/01/02 04:19:32;;;;;;;19.40;10.95;;;;;;;8.03;74.41;99057.03;4970790;28;20061;-69
2023/01/02 04:22:03;;;;;;;21.70;12.13;;;;;;;8.03;74.49;99063.31;4969968;28;20067;-69
2023/01/02 04:24:36;;;;;;;24.02;14.38;;;;;;;8.03;74.37;99055.13;4970472;28;20031;-69
2023/01/02 04:27:19;;;;;;;22.52;13.10;;;;;;;8.03;74.50;99059.78;4970965;28;20031;-69
2023/01/02 04:29:46;;;;;;;20.23;11.85;;;;;;;8.02;74.75;99060.88;4970905;28;20031;-69
2023/01/02 04:32:21;;;;;;;20.73;12.05;;;;;;;7.99;74.33;99051.28;4971391;28;20031;-69
2023/01/02 04:34:49;;;;;;;20.48;12.13;;;;;;;7.99;74.07;99050.47;4970514;28;20037;-69
2023/01/02 04:37:44;;;;;;;20.90;13.70;;;;;;;7.96;74.70;99054.53;5012382;28;20076;-69
2023/01/02 04:40:20;;;;;;;20.75;13.63;;;;;;;7.98;74.99;99057.00;4990763;28;20048;-69
2023/01/02 04:42:46;;;;;;;18.73;12.43;;;;;;;7.95;74.37;99055.63;5072269;28;20033;-69
2023/01/02 04:45:12;;;;;;;22.85;14.82;;;;;;;7.93;74.23;99049.63;4992451;28;20565;-69
2023/01/02 04:47:37;;;;;;;19.95;12.98;;;;;;;7.92;74.02;99053.44;4970809;28;20084;-69
2023/01/02 04:50:04;;;;;;;22.27;13.15;;;;;;;7.92;74.17;99050.72;4983482;28;20025;-69
2023/01/02 04:52:29;;;;;;;22.52;12.55;;;;;;;7.90;73.71;99050.16;4971174;28;20031;-69
2023/01/02 04:54:55;;;;;;;19.38;12.48;;;;;;;7.88;73.90;99046.84;4970334;28;20039;-69
2023/01/02 04:57:20;;;;;;;23.05;12.52;;;;;;;7.84;74.15;99038.34;5034801;28;20064;-69
2023/01/02 04:59:46;;;;;;;21.45;12.75;;;;;;;7.83;73.69;99033.16;5072093;28;20396;-69
2023/01/02 05:02:11;;;;;;;22.58;13.68;;;;;;;7.82;74.28;99028.78;5072202;28;20099;-69
2023/01/02 05:04:36;;;;;;;22.02;14.73;;;;;;;7.80;73.88;99028.22;5034649;28;20034;-69
2023/01/02 05:07:02;;;;;;;34.28;18.58;;;;;;;7.77;74.31;99017.84;4978612;28;20039;-69
2023/01/02 05:09:27;;;;;;;33.35;20.35;;;;;;;7.70;73.91;99021.63;5071562;28;20029;-69
2023/01/02 05:11:53;;;;;;;29.65;18.08;;;;;;;7.65;74.23;99023.50;5049814;28;20019;-69
2023/01/02 05:14:18;;;;;;;29.95;16.52;;;;;;;7.60;74.49;99016.09;4970130;28;20047;-69
2023/01/02 05:16:43;;;;;;;23.75;14.57;;;;;;;7.57;74.15;99011.97;4970335;28;20027;-69
2023/01/02 05:19:09;;;;;;;22.80;12.23;;;;;;;7.54;74.40;99012.50;5046030;28;20423;-69
2023/01/02 05:24:18;;;;;;;19.17;10.70;;;;;;;7.53;74.91;99008.13;5071297;28;20551;-68
2023/01/02 05:26:43;;;;;;;17.20;11.02;;;;;;;7.56;75.20;99013.06;5070710;28;20481;-68
2023/01/02 05:29:09;;;;;;;17.55;9.90;;;;;;;7.58;74.93;99023.72;5070240;28;20035;-68
2023/01/02 05:31:34;;;;;;;14.30;8.57;;;;;;;7.61;74.81;99020.47;5062940;28;20071;-69
2023/01/02 05:33:59;;;;;;;16.98;9.18;;;;;;;7.64;75.28;99024.59;4970176;28;20049;-68
2023/01/02 05:36:26;;;;;;;14.80;8.52;;;;;;;7.67;74.86;99029.53;4969527;28;20403;-69
2023/01/02 05:38:52;;;;;;;13.40;8.30;;;;;;;7.69;74.68;99030.09;4970173;28;20434;-71
2023/01/02 05:41:19;;;;;;;14.82;8.77;;;;;;;7.70;75.01;99026.28;4975433;28;20043;-71
2023/01/02 05:43:44;;;;;;;12.95;8.73;;;;;;;7.70;74.79;99035.28;4970210;28;20089;-71
2023/01/02 05:46:11;;;;;;;14.40;9.15;;;;;;;7.72;74.86;99037.75;4970626;28;20464;-71
2023/01/02 05:48:38;;;;;;;16.05;10.10;;;;;;;7.73;74.87;99044.84;4970085;28;20038;-70
2023/01/02 05:51:04;;;;;;;15.63;9.05;;;;;;;7.73;74.71;99039.41;4967302;28;20391;-71
2023/01/02 05:53:31;;;;;;;15.07;8.85;;;;;;;7.74;74.94;99039.13;4968803;28;20038;-70
2023/01/02 05:56:22;;;;;;;15.55;9.90;;;;;;;7.74;74.94;99041.03;4969466;28;20063;-70
2023/01/02 05:58:49;;;;;;;18.80;12.45;;;;;;;7.77;74.87;99039.69;4968988;28;20046;-69
2023/01/02 06:01:17;;;;;;;17.42;11.95;;;;;;;7.76;74.93;99044.31;4988907;28;20082;-69
2023/01/02 06:03:45;;;;;;;19.45;10.57;;;;;;;7.77;74.57;99053.34;5007494;28;20051;-68
2023/01/02 06:06:11;;;;;;;20.67;12.57;;;;;;;7.78;74.98;99052.25;4968197;28;20076;-68
2023/01/02 06:08:37;;;;;;;18.90;10.50;;;;;;;7.78;74.78;99046.78;5002665;28;20107;-69
2023/01/02 06:11:04;;;;;;;19.05;10.95;;;;;;;7.77;75.45;99042.41;4973849;28;20479;-69
2023/01/02 06:13:31;;;;;;;21.25;12.27;;;;;;;7.79;74.85;99048.44;4974142;28;20027;-69
2023/01/02 06:15:58;;;;;;;20.35;12.52;;;;;;;7.77;74.73;99040.50;4967042;28;20084;-68
2023/01/02 06:18:24;;;;;;;21.52;11.63;;;;;;;7.76;75.45;99041.56;4977151;28;20122;-68
2023/01/02 06:20:50;;;;;;;22.88;13.38;;;;;;;7.75;74.59;99040.78;4978939;28;20030;-68
2023/01/02 06:23:16;;;;;;;20.73;12.48;;;;;;;7.76;74.75;99036.13;4987582;28;20019;-68
2023/01/02 06:25:41;;;;;;;20.52;14.45;;;;;;;7.74;74.81;99039.13;4967203;28;20467;-69
2023/01/02 06:28:07;;;;;;;23.52;13.13;;;;;;;7.74;75.09;99033.66;4967621;28;20503;-68
2023/01/02 06:30:32;;;;;;;21.42;13.65;;;;;;;7.75;75.08;99035.31;4968028;28;20031;-68
2023/01/02 06:32:57;;;;;;;29.17;18.35;;;;;;;7.75;74.51;99037.19;4969251;28;20031;-68
2023/01/02 06:35:23;;;;;;;29.10;19.75;;;;;;;7.72;74.71;99035.81;4969502;28;20030;-68
2023/01/02 06:37:49;;;;;;;28.83;20.65;;;;;;;7.71;74.69;99034.19;4969155;28;20399;-68
2023/01/02 06:40:14;;;;;;;33.38;25.02;;;;;;;7.69;74.87;99028.16;5005560;28;20478;-68
2023/01/02 06:42:43;;;;;;;29.52;20.60;;;;;;;7.69;75.00;99019.16;5070286;28;20468;-68
2023/01/02 06:45:09;;;;;;;27.63;20.88;;;;;;;7.67;74.43;99013.16;5070180;28;20024;-68
2023/01/02 06:47:35;;;;;;;26.35;18.90;;;;;;;7.65;74.43;99018.03;5069778;28;20024;-68
2023/01/02 06:50:00;;;;;;;29.35;17.40;;;;;;;7.62;74.82;99018.56;5024712;28;20088;-67
2023/01/02 06:52:27;;;;;;;25.55;15.93;;;;;;;7.60;75.04;99013.34;4968713;28;20026;-67
2023/01/02 06:54:52;;;;;;;32.33;18.88;;;;;;;7.59;75.02;99023.47;4967977;28;20035;-67
2023/01/02 06:57:18;;;;;;;26.23;18.25;;;;;;;7.62;74.98;99029.50;4967406;28;20061;-68
2023/01/02 06:59:43;;;;;;;27.58;20.25;;;;;;;7.63;75.07;99029.22;4968574;28;20035;-68
2023/01/02 07:02:10;;;;;;;30.50;19.63;;;;;;;7.63;74.80;99031.94;5044236;28;20032;-68
2023/01/02 07:04:36;;;;;;;33.58;16.80;;;;;;;7.68;74.83;99044.81;4968078;28;20029;-68
2023/01/02 07:07:01;;;;;;;28.65;16.02;;;;;;;7.67;75.36;99038.53;4978963;28;20109;-68
2023/01/02 07:09:26;;;;;;;32.72;17.27;;;;;;;7.68;74.93;99037.44;4985726;28;20030;-69
2023/01/02 07:11:52;;;;;;;31.25;16.65;;;;;;;7.69;75.13;99032.81;4964607;28;20023;-68
2023/01/02 07:14:18;;;;;;;36.92;18.20;;;;;;;7.68;74.69;99023.78;4963210;28;20461;-70
2023/01/02 07:16:43;;;;;;;37.60;19.77;;;;;;;7.69;74.31;99024.63;4966627;28;20030;-69
2023/01/02 07:19:09;;;;;;;36.20;19.50;;;;;;;7.68;74.69;99028.44;4967124;28;20054;-70
2023/01/02 07:21:34;;;;;;;46.55;23.63;;;;;;;7.66;74.76;99036.88;4966847;28;20030;-69
2023/01/02 07:23:59;;;;;;;64.43;30.77;;;;;;;7.66;74.91;99036.06;4965767;28;20035;-65
2023/01/02 07:26:25;;;;;;;67.20;32.13;;;;;;;7.66;74.67;99041.53;4965867;28;20033;-66
2023/01/02 07:28:50;;;;;;;72.63;34.05;;;;;;;7.65;74.49;99037.16;4966692;28;20438;-66
2023/01/02 07:31:18;;;;;;;52.90;25.50;;;;;;;7.62;74.94;99030.28;4966583;28;20495;-66
2023/01/02 07:33:43;;;;;;;41.85;22.33;;;;;;;7.60;74.76;99027.84;4976069;28;20095;-67
2023/01/02 07:36:12;;;;;;;50.03;22.23;;;;;;;7.61;74.68;99034.09;4964481;28;20142;-68
2023/01/02 07:38:38;;;;;;;65.38;24.35;;;;;;;7.64;74.72;99032.78;4965555;28;20027;-68
2023/01/02 07:41:10;;;;;;;43.78;19.92;;;;;;;7.65;74.63;99026.22;4970347;28;20545;-71
2023/01/02 07:43:36;;;;;;;29.45;14.68;;;;;;;7.66;74.87;99031.41;4972208;28;20023;-68
2023/01/02 07:46:03;;;;;;;25.58;14.73;;;;;;;7.66;75.11;99025.97;4966152;28;20037;-67
2023/01/02 07:48:31;;;;;;;29.08;15.35;;;;;;;7.69;75.21;99017.25;4966495;28;20031;-69
2023/01/02 07:51:01;;;;;;;33.53;17.45;;;;;;;7.73;75.15;99023.00;4966589;28;20458;-68
2023/01/02 07:53:26;;;;;;;38.45;18.17;;;;;;;7.78;75.61;99019.47;4966808;28;20034;-71
2023/01/02 07:55:53;;;;;;;37.80;21.40;;;;;;;7.84;75.13;99021.16;4965591;28;20454;-67
2023/01/02 07:58:18;;;;;;;36.40;25.33;;;;;;;7.87;76.03;99015.97;4965549;28;20046;-67
2023/01/02 08:00:44;;;;;;;25.35;15.70;;;;;;;7.94;75.83;99007.56;4966744;28;20034;-66
2023/01/02 08:03:09;;;;;;;25.85;15.98;;;;;;;8.01;75.90;99015.50;4966743;28;20031;-68
2023/01/02 08:05:34;;;;;;;18.40;11.07;;;;;;;8.08;75.94;99013.38;4969136;28;20098;-69
2023/01/02 08:08:00;;;;;;;17.85;12.25;;;;;;;8.16;76.29;99017.50;4966407;28;20034;-69
2023/01/02 08:10:25;;;;;;;19.98;12.02;;;;;;;8.24;75.86;99006.06;5003113;28;20111;-69
2023/01/02 08:12:51;;;;;;;18.92;12.85;;;;;;;8.30;75.89;99009.63;5005334;28;20062;-68
2023/01/02 08:15:16;;;;;;;21.02;13.75;;;;;;;8.37;76.78;99004.72;5039722;28;20035;-65
2023/01/02 08:17:41;;;;;;;19.65;13.18;;;;;;;8.43;76.38;99000.94;4976746;28;20406;-65
2023/01/02 08:20:09;;;;;;;23.23;15.13;;;;;;;8.49;76.69;98997.16;4966455;28;20038;-66
2023/01/02 08:22:34;;;;;;;23.27;13.43;;;;;;;8.54;76.95;98998.25;4973795;28;20509;-66
2023/01/02 08:25:00;;;;;;;18.83;11.93;;;;;;;8.59;76.43;98995.50;4966809;28;20059;-67
2023/01/02 08:27:25;;;;;;;21.70;13.27;;;;;;;8.67;76.68;99000.47;4969876;28;20102;-66
2023/01/02 08:29:50;;;;;;;19.83;12.90;;;;;;;8.74;76.53;98998.28;4969556;28;20050;-65
2023/01/02 08:32:16;;;;;;;17.40;10.20;;;;;;;8.81;76.65;98994.47;4970348;28;20399;-65
2023/01/02 08:34:41;;;;;;;15.88;10.30;;;;;;;8.86;76.22;98989.81;4970162;28;20495;-66
2023/01/02 08:37:07;;;;;;;14.70;9.32;;;;;;;8.92;76.65;98996.94;4984176;28;20027;-65
2023/01/02 08:39:32;;;;;;;14.25;9.25;;;;;;;8.98;76.28;98996.97;4969604;28;20490;-66
2023/01/02 08:41:57;;;;;;;13.30;9.13;;;;;;;9.06;76.56;98985.47;4976277;28;20030;-64
2023/01/02 08:44:23;;;;;;;15.23;10.68;;;;;;;9.11;76.54;98999.16;4966978;28;20080;-66
2023/01/02 08:46:49;;;;;;;15.63;9.38;;;;;;;9.19;76.08;98995.06;4970098;28;20129;-66
2023/01/02 08:49:14;;;;;;;15.23;9.60;;;;;;;9.26;75.89;99002.97;5008412;28;20030;-66
2023/01/02 08:51:39;;;;;;;13.43;9.02;;;;;;;9.32;76.05;99005.47;4969840;28;20495;-66
2023/01/02 08:54:05;;;;;;;11.55;6.90;;;;;;;9.38;76.54;98998.84;4970471;28;20922;-66
2023/01/02 08:56:32;;;;;;;15.98;10.32;;;;;;;9.45;75.70;98998.59;5059081;28;20924;-65
2023/01/02 08:59:00;;;;;;;12.48;7.95;;;;;;;9.54;76.04;99001.59;5053984;28;20100;-65
2023/01/02 09:01:26;;;;;;;14.32;8.70;;;;;;;9.61;76.05;99002.13;5013784;28;20461;-65
2023/01/02 09:03:52;;;;;;;15.00;7.82;;;;;;;9.68;75.40;98986.25;4969367;28;20031;-65
2023/01/02 09:06:19;;;;;;;14.63;7.88;;;;;;;9.76;76.00;98989.50;4972665;28;20186;-66
2023/01/02 09:08:44;;;;;;;22.45;14.10;;;;;;;9.82;75.29;98991.94;4988366;28;20034;-66
2023/01/02 09:11:15;;;;;;;36.97;22.70;;;;;;;9.89;76.05;98986.16;4966216;28;20039;-67
2023/01/02 09:13:41;;;;;;;25.65;16.92;;;;;;;9.96;75.51;98988.63;4968553;28;20106;-67
2023/01/02 09:16:08;;;;;;;15.02;10.90;;;;;;;10.01;75.44;98991.31;4968027;28;20039;-68
2023/01/02 09:18:34;;;;;;;15.45;8.60;;;;;;;10.06;75.92;98980.34;4965582;28;20165;-68
2023/01/02 09:21:00;;;;;;;11.02;7.03;;;;;;;10.10;74.99;98986.91;4968925;28;20114;-67
2023/01/02 09:23:25;;;;;;;13.25;7.63;;;;;;;10.16;75.17;98985.00;4966994;28;20050;-67
2023/01/02 09:25:51;;;;;;;12.43;7.60;;;;;;;10.23;74.85;98981.94;4964558;28;20022;-68
2023/01/02 09:28:16;;;;;;;13.10;6.95;;;;;;;10.28;74.59;98977.25;4966766;28;20740;-68
2023/01/02 09:30:41;;;;;;;11.88;7.50;;;;;;;10.34;74.40;98969.84;4968032;28;20041;-68
2023/01/02 09:33:07;;;;;;;12.70;7.78;;;;;;;10.40;74.53;98965.97;4967149;28;20115;-68
2023/01/02 09:35:34;;;;;;;11.35;7.00;;;;;;;10.42;73.87;98963.75;4985808;28;20038;-66
2023/01/02 09:37:59;;;;;;;11.30;7.38;;;;;;;10.47;74.42;98967.59;4968429;28;20054;-68
2023/01/02 09:40:25;;;;;;;10.20;7.82;;;;;;;10.51;73.97;98963.19;5060802;28;20060;-68
2023/01/02 09:42:51;;;;;;;12.60;8.10;;;;;;;10.55;73.69;98969.72;4990859;28;20027;-68
2023/01/02 09:45:17;;;;;;;12.38;8.18;;;;;;;10.57;74.34;98964.78;4968707;28;20027;-66
2023/01/02 09:47:45;;;;;;;11.77;7.15;;;;;;;10.62;73.65;98961.19;4967908;28;20109;-66
2023/01/02 09:50:22;;;;;;;12.25;8.38;;;;;;;10.66;73.63;98960.34;4968477;28;20125;-66
2023/01/02 09:52:54;;;;;;;12.27;8.25;;;;;;;10.69;73.95;98948.81;4968285;28;20422;-66
2023/01/02 09:55:47;;;;;;;14.90;8.50;;;;;;;10.74;74.10;98950.69;5067734;28;20049;-66
2023/01/02 09:58:40;;;;;;;11.88;7.90;;;;;;;10.79;73.00;98947.09;5013463;28;20557;-66
2023/01/02 10:01:14;;;;;;;14.80;8.00;;;;;;;10.85;73.43;98951.41;4967140;28;20047;-66
2023/01/02 10:03:54;;;;;;;15.25;8.02;;;;;;;10.90;73.64;98950.59;4991399;28;20042;-66
2023/01/02 10:06:25;;;;;;;;;;;;;;;10.96;73.00;98943.94;4968241;28;20093;-66
2023/01/02 10:08:56;;;;;;;13.48;8.70;;;;;;;11.01;73.61;98932.91;4967277;28;19917;-65
2023/01/02 10:11:27;;;;;;;15.68;9.90;;;;;;;11.04;73.13;98931.53;4963591;28;20084;-66
2023/01/02 10:14:14;;;;;;;11.98;7.35;;;;;;;11.08;73.05;98921.63;4964219;28;20092;-65
2023/01/02 10:16:44;;;;;;;13.32;7.70;;;;;;;11.13;73.01;98925.13;4965468;28;20034;-65
2023/01/02 10:19:43;;;;;;;15.13;9.10;;;;;;;11.20;72.78;98926.72;4967138;28;20120;-65
2023/01/02 10:22:14;;;;;;;12.67;7.00;;;;;;;11.26;73.29;98918.13;4958412;28;20045;-66
2023/01/02 10:24:51;;;;;;;12.52;7.93;;;;;;;11.32;72.80;98921.66;4988706;28;20042;-66
2023/01/02 10:27:26;;;;;;;12.65;7.28;;;;;;;11.36;72.33;98908.16;4971166;28;20046;-66
2023/01/02 10:30:16;;;;;;;12.32;7.18;;;;;;;11.39;71.94;98910.34;4998254;28;20027;-66
2023/01/02 10:32:46;;;;;;;17.23;10.27;;;;;;;11.44;72.02;98918.53;4960012;28;20029;-66
2023/01/02 10:35:27;;;;;;;14.27;8.48;;;;;;;11.48;71.74;98914.09;4964564;28;20528;-66
2023/01/02 10:37:55;;;;;;;25.55;14.55;;;;;;;11.53;72.08;98919.53;4987849;28;20058;-66
2023/01/02 10:40:21;;;;;;;13.73;8.73;;;;;;;11.59;71.57;98912.88;4983047;28;20042;-65
2023/01/02 10:42:52;;;;;;;10.88;7.45;;;;;;;11.63;71.70;98918.59;4974230;28;20037;-65
2023/01/02 10:45:17;;;;;;;11.70;6.10;;;;;;;11.67;71.61;98919.66;4986320;28;20036;-66
2023/01/02 10:47:43;;;;;;;10.48;6.10;;;;;;;11.73;71.78;98906.66;4983080;28;20383;-65
2023/01/02 10:50:19;;;;;;;10.98;6.05;;;;;;;11.77;71.98;98911.28;4967695;28;20023;-64
2023/01/02 10:52:53;;;;;;;11.05;6.28;;;;;;;11.83;71.91;98901.03;4968101;28;20537;-64
2023/01/02 10:55:29;;;;;;;9.90;6.13;;;;;;;11.90;71.03;98900.69;4966845;28;20051;-65
2023/01/02 10:58:02;;;;;;;8.23;5.55;;;;;;;11.94;71.13;98889.94;4966242;28;20403;-65
2023/01/02 11:00:30;;;;;;;7.40;5.22;;;;;;;11.98;71.03;98893.72;4967303;28;20387;-66
2023/01/02 11:03:05;;;;;;;9.20;5.60;;;;;;;12.02;70.96;98876.38;4967902;28;20488;-65
2023/01/02 11:05:31;;;;;;;8.77;5.95;;;;;;;12.07;71.04;98883.72;4967389;28;20031;-65
2023/01/02 11:07:57;;;;;;;10.30;7.13;;;;;;;12.11;71.05;98884.75;4949631;28;20026;-64
2023/01/02 11:10:35;;;;;;;10.80;7.03;;;;;;;12.17;70.98;98878.09;4964148;28;20027;-62
2023/01/02 11:13:08;;;;;;;8.23;4.93;;;;;;;12.24;70.29;98883.22;4997503;28;20122;-65
2023/01/02 11:15:42;;;;;;;9.38;5.53;;;;;;;12.28;70.31;98876.00;4966873;28;20038;-64
2023/01/02 11:18:16;;;;;;;11.27;7.97;;;;;;;12.32;70.25;98873.50;4966466;28;20048;-64
2023/01/02 11:20:49;;;;;;;9.82;6.47;;;;;;;12.35;69.34;98865.44;4966802;28;20031;-65
2023/01/02 11:23:15;;;;;;;8.77;4.72;;;;;;;12.38;69.90;98871.47;4966615;28;20031;-65
2023/01/02 11:25:42;;;;;;;7.72;4.50;;;;;;;12.42;68.75;98870.59;5008489;28;20031;-64
2023/01/02 11:28:17;;;;;;;6.50;4.60;;;;;;;12.45;69.77;98880.16;4966338;28;20030;-65
2023/01/02 11:30:46;;;;;;;7.25;4.38;;;;;;;12.50;69.48;98882.84;5007242;28;20028;-65
2023/01/02 11:33:23;;;;;;;9.80;5.07;;;;;;;12.53;69.51;98885.00;5068266;28;20120;-63
2023/01/02 11:35:55;;;;;;;7.45;5.53;;;;;;;12.58;69.92;98884.94;4964172;28;20096;-64
2023/01/02 11:38:41;;;;;;;7.18;4.45;;;;;;;12.63;69.11;98868.31;4963954;28;20039;-65
2023/01/02 11:41:20;;;;;;;11.90;7.00;;;;;;;12.65;68.50;98876.28;5009540;28;20041;-66
2023/01/02 11:43:51;;;;;;;8.30;5.00;;;;;;;12.70;69.22;98878.13;5061583;28;20362;-64